Time;durP1;ratioP1;P1;durP2;ratioP2;P2;SDS_P1;SDS_P2;PMS_P1;PMS_P2;Temp;Humidity;BMP_temperature;BMP_pressure;BME280_temperature;BME280_humidity;BME280_pressure;Samples;Min_cycle;Max_cycle;Signal;HPM_P1;HPM_P2
2023/07/16 00:00:40;;;;;;;5.88;4.78;;;;;;;25.46;57.32;98553.47;5085677;28;20086;-72
2023/07/16 00:03:07;;;;;;;7.88;4.55;;;;;;;25.51;57.17;98542.03;5085269;28;20045;-72
2023/07/16 00:05:34;;;;;;;7.45;4.15;;;;;;;25.15;57.50;98499.63;5084199;28;20087;-72
2023/07/16 00:08:02;;;;;;;6.03;3.63;;;;;;;25.50;57.17;98540.34;5085072;28;20045;-72
2023/07/16 00:10:29;;;;;;;4.65;3.90;;;;;;;25.48;57.40;98548.69;5085314;28;20044;-72
2023/07/16 00:12:56;;;;;;;8.43;4.00;;;;;;;25.36;58.01;98547.56;5085294;28;20044;-72
2023/07/16 00:15:23;;;;;;;5.07;4.00;;;;;;;25.33;58.00;98538.97;5085578;28;20051;-72
2023/07/16 00:17:49;;;;;;;5.88;4.03;;;;;;;25.30;58.08;98544.78;5084055;28;20040;-73
2023/07/16 00:20:16;;;;;;;6.40;4.30;;;;;;;25.16;58.73;98549.25;5085120;28;20098;-72
2023/07/16 00:22:43;;;;;;;6.40;4.57;;;;;;;25.01;59.07;98559.34;5088088;28;20044;-72
2023/07/16 00:25:12;;;;;;;7.75;4.75;;;;;;;25.14;58.75;98565.72;5089263;28;20048;-73
2023/07/16 00:27:41;;;;;;;4.47;3.85;;;;;;;25.02;59.04;98561.88;5088714;28;20304;-72
2023/07/16 00:30:09;;;;;;;6.28;4.32;;;;;;;25.05;59.29;98560.63;5088913;28;20044;-73
2023/07/16 00:32:36;;;;;;;4.55;3.50;;;;;;;25.09;58.92;98560.06;5089184;28;20040;-72
2023/07/16 00:35:02;;;;;;;5.43;4.18;;;;;;;25.08;59.22;98571.09;5088865;28;20354;-72
2023/07/16 00:37:29;;;;;;;5.22;4.03;;;;;;;24.86;58.85;98508.75;5088529;28;20301;-73
2023/07/16 00:39:56;;;;;;;5.43;4.90;;;;;;;25.21;58.54;98558.47;5088980;28;20064;-73
2023/07/16 00:42:24;;;;;;;7.10;5.00;;;;;;;25.01;59.20;98562.91;5087596;28;20064;-73
2023/07/16 00:44:51;;;;;;;6.88;4.78;;;;;;;25.04;59.32;98557.09;5088377;28;20105;-72
2023/07/16 00:47:18;;;;;;;6.50;4.72;;;;;;;25.05;59.15;98555.22;5088567;28;20094;-73
2023/07/16 00:49:46;;;;;;;4.78;4.30;;;;;;;25.03;59.26;98552.72;5088591;28;20114;-73
2023/07/16 00:52:17;;;;;;;5.78;4.60;;;;;;;24.97;59.41;98553.47;5088607;28;20040;-73
2023/07/16 00:54:44;;;;;;;6.55;4.70;;;;;;;24.86;59.75;98540.44;5088554;28;20094;-73
2023/07/16 00:57:11;;;;;;;5.03;4.18;;;;;;;24.93;59.63;98552.16;5087397;28;20045;-72
2023/07/16 00:59:39;;;;;;;6.28;4.50;;;;;;;24.92;59.64;98547.78;5088515;28;20044;-73
2023/07/16 01:02:06;;;;;;;6.65;4.50;;;;;;;24.83;59.76;98533.53;5087370;28;20040;-73
2023/07/16 01:04:33;;;;;;;8.40;4.50;;;;;;;24.70;60.30;98525.28;5088340;28;20044;-73
2023/07/16 01:07:05;;;;;;;5.38;4.65;;;;;;;24.77;60.05;98549.75;5088350;28;20040;-73
2023/07/16 01:09:33;;;;;;;7.05;4.65;;;;;;;24.84;60.22;98542.50;5088146;28;20090;-73
2023/07/16 01:12:01;;;;;;;5.85;4.13;;;;;;;24.63;59.61;98500.81;5088492;28;20248;-73
2023/07/16 01:14:28;;;;;;;5.63;4.22;;;;;;;24.81;60.26;98545.59;5087880;28;20111;-73
2023/07/16 01:16:58;;;;;;;5.45;4.15;;;;;;;24.66;59.91;98515.88;5087027;28;20097;-73
2023/07/16 01:19:25;;;;;;;6.07;4.43;;;;;;;24.81;59.96;98546.44;5087039;28;20051;-72
2023/07/16 01:22:03;;;;;;;6.80;4.22;;;;;;;24.70;60.93;98543.41;5088124;28;20044;-73
2023/07/16 01:24:54;;;;;;;5.75;4.40;;;;;;;24.78;60.09;98541.41;5087973;28;20040;-73
2023/07/16 01:27:39;;;;;;;7.10;4.57;;;;;;;24.72;60.45;98542.19;5087986;28;20124;-73
2023/07/16 01:30:10;;;;;;;5.90;4.43;;;;;;;24.89;59.99;98535.47;5087923;28;20078;-73
2023/07/16 01:32:38;;;;;;;7.75;4.40;;;;;;;24.91;59.72;98535.28;5087590;28;20044;-73
2023/07/16 01:35:06;;;;;;;5.43;4.22;;;;;;;24.86;60.08;98527.72;5087806;28;20041;-72
2023/07/16 01:37:33;;;;;;;6.32;4.97;;;;;;;24.83;60.36;98525.41;5086606;28;20365;-72
2023/07/16 01:40:00;;;;;;;6.97;4.22;;;;;;;24.83;59.96;98516.44;5087353;28;20052;-72
2023/07/16 01:42:27;;;;;;;6.20;4.60;;;;;;;24.81;60.17;98529.34;5086876;28;20305;-73
2023/07/16 01:44:54;;;;;;;7.45;4.53;;;;;;;24.33;60.04;98434.28;5087664;28;20085;-74
2023/07/16 01:47:29;;;;;;;4.88;4.25;;;;;;;24.82;59.34;98503.94;5086492;28;20293;-74
2023/07/16 01:49:56;;;;;;;6.32;4.38;;;;;;;24.39;60.83;98501.22;5087524;28;20327;-74
2023/07/16 01:52:23;;;;;;;5.78;4.53;;;;;;;24.28;60.42;98474.66;5087570;28;20071;-73
2023/07/16 01:54:50;;;;;;;6.28;4.82;;;;;;;24.48;61.31;98523.59;5087530;28;20040;-73
2023/07/16 01:57:17;;;;;;;5.15;4.63;;;;;;;24.51;61.01;98524.03;5087464;28;20354;-73
2023/07/16 01:59:44;;;;;;;6.43;4.60;;;;;;;24.53;60.79;98529.25;5087748;28;20040;-73
2023/07/16 02:02:11;;;;;;;5.07;4.47;;;;;;;24.47;61.05;98532.75;5086269;28;20212;-73
2023/07/16 02:04:39;;;;;;;6.68;5.10;;;;;;;24.54;60.86;98533.66;5087591;28;20101;-73
2023/07/16 02:07:09;;;;;;;5.18;4.03;;;;;;;24.39;60.97;98522.88;5087254;28;20052;-72
2023/07/16 02:09:36;;;;;;;6.03;4.93;;;;;;;24.33;61.35;98554.28;5087406;28;20280;-73
2023/07/16 02:12:03;;;;;;;5.63;4.18;;;;;;;24.47;61.22;98551.69;5087418;28;20048;-73
2023/07/16 02:14:30;;;;;;;6.75;4.32;;;;;;;24.52;60.93;98546.53;5087111;28;20040;-73
2023/07/16 02:16:56;;;;;;;6.13;4.63;;;;;;;24.46;61.31;98556.28;5086506;28;20200;-73
2023/07/16 02:19:25;;;;;;;7.95;4.47;;;;;;;24.10;60.79;98479.66;5086747;28;20115;-73
2023/07/16 02:21:54;;;;;;;6.18;4.47;;;;;;;24.34;61.73;98557.81;5086385;28;20036;-73
2023/07/16 02:24:21;;;;;;;5.95;4.60;;;;;;;24.27;61.98;98559.63;5086794;28;20064;-73
2023/07/16 02:26:47;;;;;;;7.50;4.20;;;;;;;24.30;61.98;98560.06;5085662;28;20296;-73
2023/07/16 02:29:14;;;;;;;5.28;4.40;;;;;;;24.23;62.25;98569.16;5087335;28;20239;-73
2023/07/16 02:31:43;;;;;;;7.10;4.63;;;;;;;24.33;62.05;98569.69;5086449;28;20181;-73
2023/07/16 02:34:10;;;;;;;6.70;4.45;;;;;;;24.41;61.53;98572.28;5086710;28;20048;-73
2023/07/16 02:36:36;;;;;;;6.43;4.43;;;;;;;24.39;61.40;98568.06;5086620;28;20045;-73
2023/07/16 02:39:04;;;;;;;6.50;4.68;;;;;;;24.38;61.78;98567.25;5085515;28;20317;-73
2023/07/16 02:41:31;;;;;;;6.40;4.07;;;;;;;24.37;61.53;98560.16;5086482;28;20255;-72
2023/07/16 02:44:02;;;;;;;6.25;5.25;;;;;;;23.98;62.17;98534.28;5085827;28;20045;-73
2023/07/16 02:46:28;;;;;;;5.95;3.90;;;;;;;24.28;62.07;98570.25;5085478;28;20328;-73
2023/07/16 02:48:56;;;;;;;8.13;4.60;;;;;;;24.25;62.28;98570.63;5086688;28;20064;-73
2023/07/16 02:51:23;;;;;;;6.30;4.15;;;;;;;24.22;62.16;98572.88;5085263;28;20384;-75
2023/07/16 02:53:50;;;;;;;6.40;4.20;;;;;;;24.27;62.17;98571.28;5086323;28;20094;-72
2023/07/16 02:56:18;;;;;;;6.15;4.57;;;;;;;24.15;62.18;98575.50;5085967;28;20044;-72
2023/07/16 02:58:45;;;;;;;5.55;4.25;;;;;;;24.20;62.28;98583.06;5085950;28;20040;-74
2023/07/16 03:01:12;;;;;;;7.38;4.35;;;;;;;24.13;62.50;98582.16;5085938;28;20044;-74
2023/07/16 03:03:39;;;;;;;5.38;4.28;;;;;;;24.12;62.67;98588.59;5068525;28;20048;-74
2023/07/16 03:06:05;;;;;;;6.28;4.78;;;;;;;24.12;62.54;98588.59;5085971;28;20308;-73
2023/07/16 03:08:32;;;;;;;5.47;4.90;;;;;;;23.94;63.15;98586.25;5085815;28;20094;-74
2023/07/16 03:10:59;;;;;;;5.63;4.90;;;;;;;24.10;62.49;98591.47;5085812;28;20052;-73
2023/07/16 03:13:27;;;;;;;5.82;4.60;;;;;;;23.97;62.75;98578.63;5086032;28;20040;-73
2023/07/16 03:15:54;;;;;;;6.30;4.45;;;;;;;24.20;62.46;98607.44;5085805;28;20033;-74
2023/07/16 03:18:21;;;;;;;6.07;4.68;;;;;;;24.09;62.43;98587.09;5084856;28;20051;-74
2023/07/16 03:20:47;;;;;;;7.03;4.72;;;;;;;24.22;62.42;98603.50;5085885;28;20055;-74
2023/07/16 03:23:14;;;;;;;7.55;5.15;;;;;;;24.06;62.96;98608.28;5084775;28;20044;-73
2023/07/16 03:25:41;;;;;;;6.97;4.25;;;;;;;23.97;63.54;98612.97;5085841;28;20089;-74
2023/07/16 03:28:08;;;;;;;7.30;4.78;;;;;;;24.03;63.36;98620.34;5085456;28;20327;-73
2023/07/16 03:30:37;;;;;;;8.15;5.05;;;;;;;24.11;63.23;98619.41;5086044;28;20063;-73
2023/07/16 03:33:04;;;;;;;5.45;4.70;;;;;;;24.07;62.88;98615.38;5085782;28;20243;-73
2023/07/16 03:35:31;;;;;;;5.05;4.40;;;;;;;24.17;62.65;98607.81;5085477;28;20108;-74
2023/07/16 03:37:58;;;;;;;6.40;4.68;;;;;;;23.92;63.65;98610.78;5085762;28;20102;-74
2023/07/16 03:40:27;;;;;;;6.47;5.07;;;;;;;23.96;63.52;98614.81;5085260;28;20263;-74
2023/07/16 03:42:54;;;;;;;4.93;4.35;;;;;;;23.67;63.09;98561.53;5085374;28;20223;-74
2023/07/16 03:45:22;;;;;;;6.55;4.95;;;;;;;24.07;63.18;98635.16;5085601;28;20040;-74
2023/07/16 03:47:50;;;;;;;6.00;5.40;;;;;;;23.83;63.32;98586.72;5085398;28;20048;-73
2023/07/16 03:50:17;;;;;;;7.70;5.25;;;;;;;24.12;63.17;98635.44;5085597;28;20044;-74
2023/07/16 03:52:44;;;;;;;6.30;4.82;;;;;;;24.16;63.13;98641.31;5085656;28;20052;-74
2023/07/16 03:55:11;;;;;;;6.43;5.80;;;;;;;23.92;63.75;98634.31;5086177;28;20288;-74
2023/07/16 03:57:39;;;;;;;5.88;4.97;;;;;;;23.77;63.88;98623.47;5088601;28;20295;-74
2023/07/16 04:00:09;;;;;;;9.48;5.47;;;;;;;23.90;64.34;98658.84;5089641;28;20106;-74
2023/07/16 04:02:36;;;;;;;5.75;5.10;;;;;;;23.93;64.27;98663.88;5072050;28;20059;-75
2023/07/16 04:05:04;;;;;;;6.35;5.28;;;;;;;24.06;63.71;98657.84;5089528;28;20044;-74
2023/07/16 04:07:31;;;;;;;5.85;5.07;;;;;;;24.04;63.98;98668.03;5089873;28;20048;-75
2023/07/16 04:09:58;;;;;;;6.28;5.32;;;;;;;23.90;64.46;98652.59;5089790;28;20048;-75
2023/07/16 04:12:25;;;;;;;6.47;5.78;;;;;;;23.91;64.04;98656.97;5088965;28;20040;-75
2023/07/16 04:14:56;;;;;;;9.63;5.45;;;;;;;23.86;64.31;98654.84;5089775;28;20045;-74
2023/07/16 04:17:23;;;;;;;6.13;5.50;;;;;;;23.82;64.46;98663.50;5089091;28;20048;-74
2023/07/16 04:19:50;;;;;;;6.78;4.80;;;;;;;23.93;64.07;98677.41;5089156;28;20062;-75
2023/07/16 04:22:18;;;;;;;6.82;5.05;;;;;;;24.02;63.91;98680.91;5088206;28;20040;-74
2023/07/16 04:24:45;;;;;;;8.32;5.57;;;;;;;23.75;65.03;98686.91;5089183;28;20052;-74
2023/07/16 04:27:12;;;;;;;7.65;5.70;;;;;;;23.73;64.81;98687.09;5087932;28;20097;-75
2023/07/16 04:29:38;;;;;;;6.15;5.15;;;;;;;23.93;64.02;98682.84;5089111;28;20051;-74
2023/07/16 04:32:06;;;;;;;7.82;5.65;;;;;;;23.90;63.96;98688.63;5089078;28;20308;-75
2023/07/16 04:34:33;;;;;;;7.68;5.43;;;;;;;23.96;63.79;98704.09;5089286;28;20051;-74
2023/07/16 04:36:59;;;;;;;5.45;4.55;;;;;;;23.93;64.18;98706.34;5088703;28;20094;-74
2023/07/16 04:39:27;;;;;;;7.53;5.43;;;;;;;24.05;64.16;98713.00;5087983;28;20198;-74
2023/07/16 04:41:54;;;;;;;7.20;5.70;;;;;;;24.06;63.53;98747.16;5088876;28;20052;-74
2023/07/16 04:44:21;;;;;;;8.68;6.00;;;;;;;24.12;63.33;98802.44;5088546;28;20265;-74
2023/07/16 04:46:48;;;;;;;6.53;5.13;;;;;;;24.20;62.83;98781.53;5088535;28;20044;-74
2023/07/16 04:49:14;;;;;;;6.28;5.68;;;;;;;24.14;63.71;98776.03;5089076;28;20052;-74
2023/07/16 04:51:41;;;;;;;8.05;5.95;;;;;;;24.13;63.41;98772.47;5087614;28;20189;-74
2023/07/16 04:54:08;;;;;;;6.63;5.57;;;;;;;24.05;63.54;98777.13;5088805;28;20051;-74
2023/07/16 04:56:36;;;;;;;5.78;4.90;;;;;;;24.06;64.01;98795.06;5088576;28;20182;-74
2023/07/16 04:59:02;;;;;;;8.00;6.65;;;;;;;24.04;63.52;98792.53;5088016;28;20271;-73
2023/07/16 05:01:30;;;;;;;5.80;5.15;;;;;;;24.21;63.09;98840.06;5088766;28;20045;-74
2023/07/16 05:03:57;;;;;;;6.10;5.40;;;;;;;24.18;63.19;98853.13;5087375;28;20193;-74
2023/07/16 05:06:23;;;;;;;6.88;6.18;;;;;;;24.22;62.94;98849.88;5088280;28;20094;-74
2023/07/16 05:08:50;;;;;;;7.95;5.80;;;;;;;24.20;63.34;98860.06;5087678;28;20041;-73
2023/07/16 05:11:17;;;;;;;5.05;4.55;;;;;;;24.25;63.33;98851.38;5088065;28;20052;-74
2023/07/16 05:13:45;;;;;;;6.75;5.43;;;;;;;24.26;63.09;98859.31;5088058;28;20044;-74
2023/07/16 05:16:11;;;;;;;8.30;5.47;;;;;;;24.29;62.90;98864.38;5087995;28;20285;-74
2023/07/16 05:18:38;;;;;;;6.70;5.57;;;;;;;24.27;63.24;98861.00;5087128;28;20296;-73
2023/07/16 05:21:05;;;;;;;8.27;6.18;;;;;;;24.17;63.92;98873.97;5087056;28;20044;-73
2023/07/16 05:23:31;;;;;;;5.25;4.75;;;;;;;24.23;64.18;98872.38;5087020;28;20048;-73
2023/07/16 05:25:58;;;;;;;7.40;5.82;;;;;;;24.17;64.09;98873.13;5088023;28;20048;-73
2023/07/16 05:28:25;;;;;;;6.47;4.95;;;;;;;24.24;63.50;98876.78;5088323;28;20044;-73
2023/07/16 05:31:00;;;;;;;6.57;5.45;;;;;;;24.09;62.35;98878.59;5088026;28;20293;-73
2023/07/16 05:33:26;;;;;;;5.75;5.03;;;;;;;24.08;61.97;98890.44;5087659;28;20259;-74
2023/07/16 05:35:53;;;;;;;6.63;5.40;;;;;;;24.09;62.01;98890.28;5086830;28;20040;-74
2023/07/16 05:38:20;;;;;;;6.68;4.93;;;;;;;24.16;60.89;98887.69;5087846;28;20062;-74
2023/07/16 05:40:47;;;;;;;7.45;5.50;;;;;;;24.18;61.35;98899.16;5087385;28;20064;-73
2023/07/16 05:43:14;;;;;;;7.47;4.93;;;;;;;24.25;60.90;98903.66;5087816;28;20102;-74
2023/07/16 05:45:41;;;;;;;7.65;5.40;;;;;;;24.29;59.72;98896.03;5087960;28;20340;-73
2023/07/16 05:48:09;;;;;;;5.80;5.20;;;;;;;23.64;59.77;98780.19;5087442;28;20048;-73
2023/07/16 05:50:36;;;;;;;6.95;5.25;;;;;;;24.30;58.37;98885.00;5087367;28;20239;-73
2023/07/16 05:53:02;;;;;;;6.80;5.20;;;;;;;24.26;57.74;98891.81;5087584;28;20044;-72
2023/07/16 05:55:29;;;;;;;5.88;4.97;;;;;;;24.30;57.44;98895.00;5087554;28;20239;-73
2023/07/16 05:57:56;;;;;;;6.22;5.18;;;;;;;24.28;57.15;98886.22;5086840;28;20292;-73
2023/07/16 06:00:23;;;;;;;7.05;4.78;;;;;;;24.31;56.83;98902.09;5087156;28;20063;-73
2023/07/16 06:02:50;;;;;;;5.20;4.50;;;;;;;24.27;56.13;98901.63;5087109;28;20044;-73
2023/07/16 06:05:18;;;;;;;7.30;5.32;;;;;;;24.29;55.96;98896.84;5087294;28;20074;-73
2023/07/16 06:07:45;;;;;;;6.50;5.25;;;;;;;24.32;55.67;98899.19;5087308;28;20051;-73
2023/07/16 06:10:12;;;;;;;5.38;4.75;;;;;;;24.40;55.67;98903.69;5087198;28;20094;-73
2023/07/16 06:12:38;;;;;;;6.53;5.22;;;;;;;24.32;55.56;98880.25;5087343;28;20044;-73
2023/07/16 06:15:06;;;;;;;10.45;5.50;;;;;;;24.43;55.42;98919.59;5087085;28;20235;-73
2023/07/16 06:17:32;;;;;;;6.85;5.50;;;;;;;24.51;55.63;98926.78;5085979;28;20045;-72
2023/07/16 06:19:59;;;;;;;5.90;5.30;;;;;;;24.43;55.75;98899.78;5085966;28;20044;-72
2023/07/16 06:22:27;;;;;;;7.00;5.13;;;;;;;24.00;56.12;98857.00;5086939;28;20045;-72
2023/07/16 06:24:54;;;;;;;6.30;5.60;;;;;;;24.61;55.77;98922.78;5086949;28;20094;-73
2023/07/16 06:27:21;;;;;;;7.30;4.60;;;;;;;24.57;55.60;98916.06;5086500;28;20051;-72
2023/07/16 06:29:48;;;;;;;5.68;5.07;;;;;;;24.71;55.25;98935.25;5086022;28;20044;-73
2023/07/16 06:32:15;;;;;;;6.75;5.22;;;;;;;24.67;55.45;98925.81;5086520;28;20055;-73
2023/07/16 06:34:42;;;;;;;6.32;5.25;;;;;;;24.74;55.83;98937.59;5086466;28;20055;-73
2023/07/16 06:37:08;;;;;;;6.45;5.13;;;;;;;24.77;55.81;98929.94;5086636;28;20041;-73
2023/07/16 06:39:36;;;;;;;6.88;5.18;;;;;;;24.81;55.69;98933.13;5086338;28;20060;-73
2023/07/16 06:42:03;;;;;;;5.85;4.95;;;;;;;24.84;56.06;98935.47;5086327;28;20243;-72
2023/07/16 06:44:30;;;;;;;6.10;5.25;;;;;;;24.90;56.33;98940.13;5086809;28;20073;-73
2023/07/16 06:46:57;;;;;;;7.55;4.80;;;;;;;24.94;56.90;98946.88;5085306;28;20208;-73
2023/07/16 06:49:24;;;;;;;5.60;4.95;;;;;;;24.96;56.83;98937.53;5086441;28;20086;-73
2023/07/16 06:51:51;;;;;;;7.75;5.68;;;;;;;25.02;56.63;98944.09;5086418;28;20040;-73
2023/07/16 06:54:17;;;;;;;6.22;5.10;;;;;;;25.05;57.18;98935.59;5086310;28;20095;-73
2023/07/16 06:56:45;;;;;;;6.63;4.85;;;;;;;25.16;56.85;98945.13;5086427;28;20041;-74
2023/07/16 06:59:12;;;;;;;7.22;6.00;;;;;;;25.23;56.80;98941.47;5085988;28;20048;-73
2023/07/16 07:01:39;;;;;;;6.85;5.05;;;;;;;25.32;56.44;98949.50;5085914;28;20056;-73
2023/07/16 07:04:05;;;;;;;6.55;5.45;;;;;;;25.32;56.52;98942.25;5086200;28;20078;-73
2023/07/16 07:06:32;;;;;;;6.00;5.40;;;;;;;25.41;55.55;98941.13;5086042;28;20044;-73
2023/07/16 07:08:59;;;;;;;5.82;5.25;;;;;;;25.50;55.37;98944.56;5085943;28;20109;-73
2023/07/16 07:11:26;;;;;;;9.95;4.97;;;;;;;25.67;54.68;98940.59;5084925;28;20072;-73
2023/07/16 07:13:55;;;;;;;6.82;5.38;;;;;;;25.76;53.62;98952.16;5086060;28;20036;-73
2023/07/16 07:16:21;;;;;;;6.55;4.53;;;;;;;25.85;53.73;98957.28;5086268;28;20044;-73
2023/07/16 07:18:48;;;;;;;8.02;4.72;;;;;;;25.97;53.26;98929.63;5085713;28;20102;-74
2023/07/16 07:21:15;;;;;;;7.38;4.95;;;;;;;26.26;52.73;98956.69;5085972;28;20045;-73
2023/07/16 07:23:41;;;;;;;7.40;4.93;;;;;;;26.46;51.83;98943.28;5084848;28;20301;-73
2023/07/16 07:26:08;;;;;;;7.38;4.65;;;;;;;26.52;51.18;98953.38;5085579;28;20037;-74
2023/07/16 07:28:35;;;;;;;6.22;4.60;;;;;;;26.80;50.77;98967.00;5085887;28;20090;-73
2023/07/16 07:31:03;;;;;;;6.68;4.80;;;;;;;26.96;51.46;98958.53;5084390;28;20059;-74
2023/07/16 07:33:29;;;;;;;9.30;4.80;;;;;;;27.08;50.30;98954.22;5085562;28;20044;-74
2023/07/16 07:35:57;;;;;;;5.95;4.32;;;;;;;27.41;50.25;98962.59;5085796;28;20090;-73
2023/07/16 07:38:23;;;;;;;5.10;4.13;;;;;;;27.23;49.33;98921.47;5085482;28;20049;-73
2023/07/16 07:40:51;;;;;;;6.47;4.22;;;;;;;27.63;48.01;98963.34;5065677;28;20072;-74
2023/07/16 07:43:18;;;;;;;6.60;4.68;;;;;;;27.79;48.58;98963.00;5065352;28;20091;-74
2023/07/16 07:45:45;;;;;;;4.93;3.95;;;;;;;27.39;48.31;98880.31;5064398;28;20095;-74
2023/07/16 07:48:13;;;;;;;9.27;5.28;;;;;;;28.11;47.34;98974.22;5064327;28;20048;-73
2023/07/16 07:50:40;;;;;;;5.05;4.35;;;;;;;28.20;45.82;98947.59;5064380;28;20049;-72
2023/07/16 07:53:07;;;;;;;5.20;4.00;;;;;;;28.28;45.98;98974.66;5065572;28;20037;-73
2023/07/16 07:55:34;;;;;;;4.40;3.47;;;;;;;28.40;45.61;98973.00;5065518;28;20091;-74
2023/07/16 07:58:01;;;;;;;8.50;4.13;;;;;;;28.58;43.48;98978.69;5064887;28;20045;-74
2023/07/16 08:00:28;;;;;;;6.07;3.55;;;;;;;28.69;44.95;98977.22;5065680;28;20041;-74
2023/07/16 08:02:54;;;;;;;6.72;3.53;;;;;;;28.81;43.99;98977.44;5064637;28;20053;-74
2023/07/16 08:05:24;;;;;;;6.13;3.92;;;;;;;28.93;43.53;98973.84;5065122;28;20297;-74
2023/07/16 08:07:52;;;;;;;8.48;3.72;;;;;;;29.01;43.57;98972.81;5065187;28;20041;-74
2023/07/16 08:10:19;;;;;;;5.65;3.88;;;;;;;29.12;43.37;98976.78;5065612;28;20048;-73
2023/07/16 08:12:45;;;;;;;3.78;2.95;;;;;;;29.16;43.53;98983.50;5065090;28;20055;-73
2023/07/16 08:15:14;;;;;;;5.72;3.33;;;;;;;28.85;42.78;98965.88;5064792;28;20090;-74
2023/07/16 08:17:41;;;;;;;3.80;3.08;;;;;;;29.16;43.16;98983.50;5065026;28;20060;-74
2023/07/16 08:20:10;;;;;;;8.40;3.80;;;;;;;29.44;42.25;98983.22;5064166;28;20073;-73
2023/07/16 08:22:39;;;;;;;8.52;4.38;;;;;;;29.45;42.93;98983.00;5065487;28;20048;-73
2023/07/16 08:25:06;;;;;;;6.30;3.50;;;;;;;29.48;42.12;98985.28;5064931;28;20045;-73
2023/07/16 08:27:33;;;;;;;4.20;3.17;;;;;;;29.59;41.75;98981.94;5065130;28;20087;-73
2023/07/16 08:30:00;;;;;;;5.25;3.20;;;;;;;29.69;41.84;98993.22;5064890;28;20040;-73
2023/07/16 08:32:27;;;;;;;6.15;3.67;;;;;;;29.65;41.55;98986.53;5065292;28;20055;-74
2023/07/16 08:34:53;;;;;;;4.68;3.05;;;;;;;29.78;41.28;98984.78;5064010;28;20045;-73
2023/07/16 08:37:21;;;;;;;4.35;3.15;;;;;;;29.82;40.55;98994.22;5065104;28;20090;-73
2023/07/16 08:39:52;;;;;;;4.38;3.58;;;;;;;29.94;40.13;98989.75;5076101;28;20112;-73
2023/07/16 08:42:20;;;;;;;7.65;3.33;;;;;;;30.03;39.51;98986.53;5085810;28;20325;-74
2023/07/16 08:44:49;;;;;;;4.45;3.22;;;;;;;30.00;40.70;98989.72;5089086;28;20098;-74
2023/07/16 08:47:16;;;;;;;4.95;3.40;;;;;;;30.13;41.05;98993.44;5089027;28;20228;-74
2023/07/16 08:49:44;;;;;;;6.93;3.58;;;;;;;30.18;40.15;98990.91;5087490;28;20305;-74
2023/07/16 08:52:12;;;;;;;4.47;3.33;;;;;;;30.02;40.38;98948.53;5088343;28;20040;-74
2023/07/16 08:54:41;;;;;;;3.53;3.17;;;;;;;30.11;40.12;99010.03;5088348;28;20051;-75
2023/07/16 08:57:09;;;;;;;5.60;2.95;;;;;;;30.11;39.50;99004.59;5087407;28;20048;-74
2023/07/16 08:59:37;;;;;;;3.78;2.88;;;;;;;29.95;39.99;98995.00;5088196;28;20040;-75
2023/07/16 09:02:04;;;;;;;6.88;3.75;;;;;;;30.21;40.17;99013.19;5088354;28;20036;-75
2023/07/16 09:04:30;;;;;;;4.30;3.22;;;;;;;30.27;39.79;99011.50;5088177;28;20045;-75
2023/07/16 09:06:57;;;;;;;3.83;3.00;;;;;;;30.20;39.50;99008.75;5088397;28;20067;-74
2023/07/16 09:09:24;;;;;;;4.57;3.70;;;;;;;30.27;40.65;99008.75;5087298;28;20036;-74
2023/07/16 09:11:51;;;;;;;5.38;3.92;;;;;;;28.66;39.74;98748.63;5088321;28;20052;-73
2023/07/16 09:14:19;;;;;;;5.85;3.72;;;;;;;30.47;39.31;99011.34;5087145;28;20048;-74
2023/07/16 09:16:50;;;;;;;5.43;3.53;;;;;;;30.61;39.64;99011.03;5088286;28;20048;-75
2023/07/16 09:19:18;;;;;;;4.32;3.30;;;;;;;30.74;38.65;99012.88;5088382;28;20098;-74
2023/07/16 09:21:47;;;;;;;5.60;3.50;;;;;;;30.58;39.76;98996.97;5087059;28;20154;-74
2023/07/16 09:24:14;;;;;;;5.15;3.08;;;;;;;30.64;39.71;99009.75;5088355;28;20189;-75
2023/07/16 09:26:49;;;;;;;8.90;3.20;;;;;;;30.71;39.48;99013.31;5087753;28;20106;-74
2023/07/16 09:29:16;;;;;;;5.22;3.13;;;;;;;30.42;38.75;98970.19;5087246;28;20188;-74
2023/07/16 09:31:55;;;;;;;3.92;3.03;;;;;;;30.80;38.87;99017.44;5086886;28;20304;-74
2023/07/16 09:34:22;;;;;;;3.83;3.15;;;;;;;30.78;39.36;99022.28;5086887;28;20131;-74
2023/07/16 09:36:49;;;;;;;3.65;2.85;;;;;;;30.85;38.32;99027.72;5088196;28;20048;-74
2023/07/16 09:39:18;;;;;;;4.25;2.83;;;;;;;30.75;38.65;98989.91;5087417;28;20061;-74
2023/07/16 09:41:45;;;;;;;4.00;3.33;;;;;;;30.88;38.53;98994.44;5087798;28;20037;-74
2023/07/16 09:44:13;;;;;;;4.57;2.90;;;;;;;31.04;38.86;99020.41;5088069;28;20059;-74
2023/07/16 09:46:40;;;;;;;4.85;3.40;;;;;;;30.95;38.98;99009.72;5087905;28;20322;-74
2023/07/16 09:49:09;;;;;;;6.65;2.85;;;;;;;31.02;38.58;99012.41;5087406;28;20036;-75
2023/07/16 09:51:37;;;;;;;5.15;2.75;;;;;;;30.92;39.00;99021.13;5086527;28;20303;-75
2023/07/16 09:54:05;;;;;;;5.18;3.15;;;;;;;31.11;38.62;99011.06;5087045;28;20040;-74
2023/07/16 09:56:37;;;;;;;5.15;3.38;;;;;;;30.92;38.02;98968.31;5087549;28;20040;-74
2023/07/16 09:59:08;;;;;;;5.43;3.33;;;;;;;31.12;38.51;99009.16;5087752;28;20068;-74
2023/07/16 10:01:38;;;;;;;5.10;3.17;;;;;;;31.06;38.23;99010.06;5087361;28;20044;-74
2023/07/16 10:04:17;;;;;;;4.03;2.83;;;;;;;31.09;38.87;99009.59;5087613;28;20052;-74
2023/07/16 10:06:54;;;;;;;4.93;3.05;;;;;;;31.21;37.94;99005.91;5087494;28;20044;-73
2023/07/16 10:09:38;;;;;;;5.10;2.88;;;;;;;31.26;37.84;99006.09;5087240;28;20052;-74
2023/07/16 10:12:14;;;;;;;;;;;;;;;31.40;37.80;99012.25;5086616;28;20044;-74
2023/07/16 10:14:42;;;;;;;5.38;2.75;;;;;;;31.39;37.99;99002.38;5086859;28;19995;-74
2023/07/16 10:17:13;;;;;;;4.78;3.10;;;;;;;31.24;38.85;99010.94;5087307;28;20082;-73
2023/07/16 10:19:59;;;;;;;12.50;3.83;;;;;;;31.26;38.24;99017.03;5085861;28;20040;-74
2023/07/16 10:22:33;;;;;;;4.97;3.22;;;;;;;31.33;37.29;99011.50;5086718;28;20072;-74
2023/07/16 10:25:01;;;;;;;4.00;3.10;;;;;;;31.31;37.16;99005.41;5087522;28;20044;-74
2023/07/16 10:27:29;;;;;;;3.92;2.92;;;;;;;31.27;37.80;98995.97;5086727;28;20040;-74
2023/07/16 10:29:56;;;;;;;3.30;2.67;;;;;;;31.28;37.65;98998.50;5086833;28;20288;-74
2023/07/16 10:32:24;;;;;;;4.63;2.97;;;;;;;31.41;38.03;99002.97;5085903;28;20044;-74
2023/07/16 10:34:51;;;;;;;3.22;2.65;;;;;;;31.46;37.44;99008.63;5086749;28;20063;-74
2023/07/16 10:37:19;;;;;;;4.03;3.10;;;;;;;31.51;37.55;99007.94;5087027;28;20376;-74
2023/07/16 10:39:48;;;;;;;5.35;2.70;;;;;;;31.44;38.08;99008.00;5086101;28;20332;-74
2023/07/16 10:42:16;;;;;;;3.65;2.72;;;;;;;31.40;37.95;99009.53;5086204;28;20052;-74
2023/07/16 10:44:42;;;;;;;3.40;2.83;;;;;;;31.44;38.29;99002.53;5086548;28;20049;-74
2023/07/16 10:47:10;;;;;;;4.22;2.70;;;;;;;31.49;38.97;98997.19;5086759;28;20040;-73
2023/07/16 10:49:36;;;;;;;4.45;3.20;;;;;;;31.48;38.73;99000.16;5086244;28;20044;-73
2023/07/16 10:52:03;;;;;;;6.90;3.55;;;;;;;31.44;38.76;98997.06;5086732;28;20051;-74
2023/07/16 10:54:32;;;;;;;3.75;2.97;;;;;;;31.42;38.41;99001.09;5086248;28;20044;-73
2023/07/16 10:56:58;;;;;;;6.65;3.55;;;;;;;31.39;38.60;98996.91;5086526;28;20053;-74
2023/07/16 10:59:25;;;;;;;3.45;2.88;;;;;;;31.45;39.29;99001.47;5085105;28;20037;-74
2023/07/16 11:01:52;;;;;;;3.70;3.08;;;;;;;31.40;37.94;99000.47;5086216;28;20051;-74
2023/07/16 11:04:19;;;;;;;3.97;2.80;;;;;;;31.43;38.32;98995.38;5086214;28;20056;-74
2023/07/16 11:06:45;;;;;;;3.90;2.75;;;;;;;31.42;38.20;99003.81;5084290;28;20040;-73
2023/07/16 11:09:12;;;;;;;5.47;3.13;;;;;;;31.53;37.64;98992.94;5086074;28;20045;-74
2023/07/16 11:11:41;;;;;;;5.07;2.88;;;;;;;31.53;38.02;99012.13;5086563;28;20059;-75
2023/07/16 11:14:09;;;;;;;3.70;3.10;;;;;;;31.60;37.16;98999.19;5084943;28;20123;-74
2023/07/16 11:16:36;;;;;;;5.05;3.25;;;;;;;31.60;37.31;99007.41;5084864;28;20040;-74
2023/07/16 11:19:05;;;;;;;6.03;3.20;;;;;;;31.67;37.30;98998.25;5085936;28;20056;-74
2023/07/16 11:21:34;;;;;;;4.43;3.00;;;;;;;31.59;37.92;98997.50;5085801;28;20041;-73
2023/07/16 11:24:09;;;;;;;3.20;2.50;;;;;;;31.23;37.53;98916.22;5085924;28;20044;-74
2023/07/16 11:26:37;;;;;;;5.00;2.90;;;;;;;31.75;37.59;98992.47;5084736;28;20094;-74
2023/07/16 11:29:15;;;;;;;3.00;2.33;;;;;;;31.63;36.83;98988.81;5086080;28;19927;-74
2023/07/16 11:31:42;;;;;;;3.33;2.90;;;;;;;31.52;37.49;98994.00;5085811;28;20292;-74
2023/07/16 11:34:13;;;;;;;3.58;2.80;;;;;;;31.58;38.12;98995.84;5085780;28;20111;-74
2023/07/16 11:36:40;;;;;;;3.97;3.00;;;;;;;31.64;37.69;98982.28;5086004;28;20054;-74